sensor_id;sensor_type;location;lat;lon;timestamp;P1;durP1;ratioP1;P2;durP2;ratioP2
64887;SDS011;51386;53.082;8.816;2022-09-09T00:00:11;10.40;;;8.63;;
64887;SDS011;51386;53.082;8.816;2022-09-09T00:02:42;8.40;;;7.70;;
64887;SDS011;51386;53.082;8.816;2022-09-09T00:05:25;11.83;;;10.63;;
64887;SDS011;51386;53.082;8.816;2022-09-09T00:08:00;13.77;;;12.40;;
64887;SDS011;51386;53.082;8.816;2022-09-09T00:10:34;13.57;;;12.37;;
64887;SDS011;51386;53.082;8.816;2022-09-09T00:13:13;15.10;;;13.50;;
64887;SDS011;51386;53.082;8.816;2022-09-09T00:15:52;13.43;;;12.00;;
64887;SDS011;51386;53.082;8.816;2022-09-09T00:18:31;12.93;;;11.80;;
64887;SDS011;51386;53.082;8.816;2022-09-09T00:21:11;14.20;;;12.37;;
64887;SDS011;51386;53.082;8.816;2022-09-09T00:23:45;14.90;;;11.73;;
64887;SDS011;51386;53.082;8.816;2022-09-09T00:26:19;13.70;;;12.40;;
64887;SDS011;51386;53.082;8.816;2022-09-09T00:29:00;14.20;;;12.90;;
64887;SDS011;51386;53.082;8.816;2022-09-09T00:31:40;13.93;;;12.67;;
64887;SDS011;51386;53.082;8.816;2022-09-09T00:34:09;13.50;;;12.30;;
64887;SDS011;51386;53.082;8.816;2022-09-09T00:36:44;15.43;;;13.83;;
64887;SDS011;51386;53.082;8.816;2022-09-09T00:39:19;14.90;;;13.47;;
64887;SDS011;51386;53.082;8.816;2022-09-09T00:41:59;14.33;;;12.97;;
64887;SDS011;51386;53.082;8.816;2022-09-09T00:44:44;14.10;;;12.70;;
64887;SDS011;51386;53.082;8.816;2022-09-09T00:47:34;15.17;;;13.57;;
64887;SDS011;51386;53.082;8.816;2022-09-09T00:50:15;15.87;;;14.37;;
64887;SDS011;51386;53.082;8.816;2022-09-09T00:53:05;15.47;;;13.90;;
64887;SDS011;51386;53.082;8.816;2022-09-09T00:56:00;15.13;;;13.57;;
64887;SDS011;51386;53.082;8.816;2022-09-09T00:58:40;14.93;;;13.43;;
64887;SDS011;51386;53.082;8.816;2022-09-09T01:01:16;15.43;;;13.07;;
64887;SDS011;51386;53.082;8.816;2022-09-09T01:03:45;14.43;;;13.13;;
64887;SDS011;51386;53.082;8.816;2022-09-09T01:06:20;13.20;;;11.73;;
64887;SDS011;51386;53.082;8.816;2022-09-09T01:09:00;15.13;;;13.60;;
64887;SDS011;51386;53.082;8.816;2022-09-09T01:11:49;14.63;;;13.23;;
64887;SDS011;51386;53.082;8.816;2022-09-09T01:14:30;13.83;;;12.43;;
64887;SDS011;51386;53.082;8.816;2022-09-09T01:17:09;12.53;;;11.43;;
64887;SDS011;51386;53.082;8.816;2022-09-09T01:19:47;13.33;;;12.13;;
64887;SDS011;51386;53.082;8.816;2022-09-09T01:22:29;13.03;;;11.83;;
64887;SDS011;51386;53.082;8.816;2022-09-09T01:25:18;12.57;;;11.47;;
64887;SDS011;51386;53.082;8.816;2022-09-09T01:27:56;12.33;;;11.20;;
64887;SDS011;51386;53.082;8.816;2022-09-09T01:30:37;13.20;;;11.90;;
64887;SDS011;51386;53.082;8.816;2022-09-09T01:33:08;12.93;;;11.73;;
64887;SDS011;51386;53.082;8.816;2022-09-09T01:35:43;12.70;;;11.50;;
64887;SDS011;51386;53.082;8.816;2022-09-09T01:38:17;10.93;;;9.93;;
64887;SDS011;51386;53.082;8.816;2022-09-09T01:40:45;12.67;;;11.40;;
64887;SDS011;51386;53.082;8.816;2022-09-09T01:43:14;12.20;;;10.90;;
64887;SDS011;51386;53.082;8.816;2022-09-09T01:45:41;11.30;;;10.30;;
64887;SDS011;51386;53.082;8.816;2022-09-09T01:48:13;11.27;;;10.27;;
64887;SDS011;51386;53.082;8.816;2022-09-09T01:50:40;9.87;;;8.97;;
64887;SDS011;51386;53.082;8.816;2022-09-09T01:53:08;11.53;;;10.33;;
64887;SDS011;51386;53.082;8.816;2022-09-09T01:55:38;12.43;;;11.23;;
64887;SDS011;51386;53.082;8.816;2022-09-09T01:58:11;10.43;;;9.50;;
64887;SDS011;51386;53.082;8.816;2022-09-09T02:01:00;11.07;;;9.93;;
64887;SDS011;51386;53.082;8.816;2022-09-09T02:03:38;12.73;;;11.50;;
64887;SDS011;51386;53.082;8.816;2022-09-09T02:06:14;10.70;;;9.77;;
64887;SDS011;51386;53.082;8.816;2022-09-09T02:08:55;11.07;;;9.73;;
64887;SDS011;51386;53.082;8.816;2022-09-09T02:11:26;9.83;;;8.90;;
64887;SDS011;51386;53.082;8.816;2022-09-09T02:13:57;8.90;;;8.10;;
64887;SDS011;51386;53.082;8.816;2022-09-09T02:16:32;9.27;;;8.40;;
64887;SDS011;51386;53.082;8.816;2022-09-09T02:19:07;9.43;;;8.60;;
64887;SDS011;51386;53.082;8.816;2022-09-09T02:21:42;10.80;;;9.57;;
64887;SDS011;51386;53.082;8.816;2022-09-09T02:24:13;10.83;;;9.73;;
64887;SDS011;51386;53.082;8.816;2022-09-09T02:26:42;8.70;;;7.90;;
64887;SDS011;51386;53.082;8.816;2022-09-09T02:29:17;10.30;;;9.40;;
64887;SDS011;51386;53.082;8.816;2022-09-09T02:31:50;7.23;;;6.63;;
64887;SDS011;51386;53.082;8.816;2022-09-09T02:34:21;9.43;;;8.63;;
64887;SDS011;51386;53.082;8.816;2022-09-09T02:36:51;12.80;;;9.37;;
64887;SDS011;51386;53.082;8.816;2022-09-09T02:39:23;9.73;;;8.37;;
64887;SDS011;51386;53.082;8.816;2022-09-09T02:41:51;10.80;;;9.60;;
64887;SDS011;51386;53.082;8.816;2022-09-09T02:44:20;10.17;;;9.17;;
64887;SDS011;51386;53.082;8.816;2022-09-09T02:46:56;9.33;;;8.20;;
64887;SDS011;51386;53.082;8.816;2022-09-09T02:49:54;8.63;;;7.30;;
64887;SDS011;51386;53.082;8.816;2022-09-09T02:52:34;8.77;;;7.97;;
64887;SDS011;51386;53.082;8.816;2022-09-09T02:55:19;9.60;;;8.63;;
64887;SDS011;51386;53.082;8.816;2022-09-09T02:57:56;8.03;;;7.23;;
64887;SDS011;51386;53.082;8.816;2022-09-09T03:00:27;9.37;;;7.70;;
64887;SDS011;51386;53.082;8.816;2022-09-09T03:02:55;8.57;;;7.67;;
64887;SDS011;51386;53.082;8.816;2022-09-09T03:05:23;8.33;;;7.60;;
64887;SDS011;51386;53.082;8.816;2022-09-09T03:07:51;8.13;;;7.40;;
64887;SDS011;51386;53.082;8.816;2022-09-09T03:10:19;8.33;;;7.63;;
64887;SDS011;51386;53.082;8.816;2022-09-09T03:12:46;9.30;;;7.40;;
64887;SDS011;51386;53.082;8.816;2022-09-09T03:15:13;7.70;;;6.90;;
64887;SDS011;51386;53.082;8.816;2022-09-09T03:17:43;11.93;;;8.03;;
64887;SDS011;51386;53.082;8.816;2022-09-09T03:20:10;8.10;;;7.00;;
64887;SDS011;51386;53.082;8.816;2022-09-09T03:22:38;7.90;;;7.10;;
64887;SDS011;51386;53.082;8.816;2022-09-09T03:25:06;8.73;;;7.13;;
64887;SDS011;51386;53.082;8.816;2022-09-09T03:27:34;7.60;;;6.97;;
64887;SDS011;51386;53.082;8.816;2022-09-09T03:30:02;7.63;;;7.00;;
64887;SDS011;51386;53.082;8.816;2022-09-09T03:32:30;8.13;;;7.33;;
64887;SDS011;51386;53.082;8.816;2022-09-09T03:34:59;8.13;;;7.00;;
64887;SDS011;51386;53.082;8.816;2022-09-09T03:37:26;9.30;;;6.33;;
64887;SDS011;51386;53.082;8.816;2022-09-09T03:39:53;10.03;;;7.17;;
64887;SDS011;51386;53.082;8.816;2022-09-09T03:42:21;8.67;;;6.77;;
64887;SDS011;51386;53.082;8.816;2022-09-09T03:44:48;8.63;;;6.50;;
64887;SDS011;51386;53.082;8.816;2022-09-09T03:47:17;10.50;;;6.23;;
64887;SDS011;51386;53.082;8.816;2022-09-09T03:49:45;7.20;;;6.30;;
64887;SDS011;51386;53.082;8.816;2022-09-09T03:52:14;7.50;;;6.70;;
64887;SDS011;51386;53.082;8.816;2022-09-09T03:54:48;6.47;;;5.87;;
64887;SDS011;51386;53.082;8.816;2022-09-09T03:57:19;7.50;;;6.30;;
64887;SDS011;51386;53.082;8.816;2022-09-09T03:59:48;7.17;;;5.73;;
64887;SDS011;51386;53.082;8.816;2022-09-09T04:02:15;6.67;;;5.77;;
64887;SDS011;51386;53.082;8.816;2022-09-09T04:04:42;8.77;;;5.97;;
64887;SDS011;51386;53.082;8.816;2022-09-09T04:07:10;6.33;;;5.27;;
64887;SDS011;51386;53.082;8.816;2022-09-09T04:09:39;7.57;;;6.20;;
64887;SDS011;51386;53.082;8.816;2022-09-09T04:12:07;5.93;;;4.50;;
64887;SDS011;51386;53.082;8.816;2022-09-09T04:14:34;6.27;;;5.63;;
64887;SDS011;51386;53.082;8.816;2022-09-09T04:17:02;6.03;;;4.97;;
64887;SDS011;51386;53.082;8.816;2022-09-09T04:19:32;7.20;;;5.27;;
64887;SDS011;51386;53.082;8.816;2022-09-09T04:21:59;5.77;;;5.10;;
64887;SDS011;51386;53.082;8.816;2022-09-09T04:24:27;8.93;;;5.33;;
64887;SDS011;51386;53.082;8.816;2022-09-09T04:26:56;6.77;;;4.47;;
64887;SDS011;51386;53.082;8.816;2022-09-09T04:29:24;5.70;;;4.00;;
64887;SDS011;51386;53.082;8.816;2022-09-09T04:31:51;4.63;;;4.20;;
64887;SDS011;51386;53.082;8.816;2022-09-09T04:34:19;5.10;;;4.60;;
64887;SDS011;51386;53.082;8.816;2022-09-09T04:36:47;5.17;;;4.30;;
64887;SDS011;51386;53.082;8.816;2022-09-09T04:39:14;7.00;;;4.37;;
64887;SDS011;51386;53.082;8.816;2022-09-09T04:41:42;4.37;;;3.97;;
64887;SDS011;51386;53.082;8.816;2022-09-09T04:44:11;6.33;;;4.47;;
64887;SDS011;51386;53.082;8.816;2022-09-09T04:46:38;7.97;;;4.47;;
64887;SDS011;51386;53.082;8.816;2022-09-09T04:49:07;6.30;;;4.40;;
64887;SDS011;51386;53.082;8.816;2022-09-09T04:51:40;6.73;;;4.13;;
64887;SDS011;51386;53.082;8.816;2022-09-09T04:54:07;6.27;;;3.90;;
64887;SDS011;51386;53.082;8.816;2022-09-09T04:56:35;4.57;;;3.70;;
64887;SDS011;51386;53.082;8.816;2022-09-09T04:59:03;5.97;;;4.50;;
64887;SDS011;51386;53.082;8.816;2022-09-09T05:01:32;5.90;;;4.00;;
64887;SDS011;51386;53.082;8.816;2022-09-09T05:04:00;3.87;;;3.57;;
64887;SDS011;51386;53.082;8.816;2022-09-09T05:06:28;7.37;;;4.40;;
64887;SDS011;51386;53.082;8.816;2022-09-09T05:08:58;9.57;;;4.23;;
64887;SDS011;51386;53.082;8.816;2022-09-09T05:11:27;5.70;;;4.23;;
64887;SDS011;51386;53.082;8.816;2022-09-09T05:13:56;6.23;;;4.63;;
64887;SDS011;51386;53.082;8.816;2022-09-09T05:16:23;4.50;;;3.87;;
64887;SDS011;51386;53.082;8.816;2022-09-09T05:18:52;6.47;;;4.50;;
64887;SDS011;51386;53.082;8.816;2022-09-09T05:21:20;7.90;;;4.67;;
64887;SDS011;51386;53.082;8.816;2022-09-09T05:23:51;6.97;;;4.23;;
64887;SDS011;51386;53.082;8.816;2022-09-09T05:26:19;5.90;;;4.17;;
64887;SDS011;51386;53.082;8.816;2022-09-09T05:28:48;4.97;;;3.57;;
64887;SDS011;51386;53.082;8.816;2022-09-09T05:31:16;4.83;;;4.33;;
64887;SDS011;51386;53.082;8.816;2022-09-09T05:33:46;4.87;;;3.93;;
64887;SDS011;51386;53.082;8.816;2022-09-09T05:36:17;7.00;;;3.90;;
64887;SDS011;51386;53.082;8.816;2022-09-09T05:38:46;4.73;;;4.20;;
64887;SDS011;51386;53.082;8.816;2022-09-09T05:41:15;5.93;;;4.50;;
64887;SDS011;51386;53.082;8.816;2022-09-09T05:43:44;6.97;;;4.33;;
64887;SDS011;51386;53.082;8.816;2022-09-09T05:46:13;7.10;;;4.60;;
64887;SDS011;51386;53.082;8.816;2022-09-09T05:48:44;8.20;;;4.93;;
64887;SDS011;51386;53.082;8.816;2022-09-09T05:51:14;5.40;;;4.90;;
64887;SDS011;51386;53.082;8.816;2022-09-09T05:53:45;5.27;;;4.00;;
64887;SDS011;51386;53.082;8.816;2022-09-09T05:56:14;4.73;;;4.20;;
64887;SDS011;51386;53.082;8.816;2022-09-09T05:58:46;6.03;;;4.20;;
64887;SDS011;51386;53.082;8.816;2022-09-09T06:01:14;6.23;;;4.80;;
64887;SDS011;51386;53.082;8.816;2022-09-09T06:03:45;6.10;;;5.03;;
64887;SDS011;51386;53.082;8.816;2022-09-09T06:06:14;6.00;;;4.70;;
64887;SDS011;51386;53.082;8.816;2022-09-09T06:08:50;5.67;;;4.23;;
64887;SDS011;51386;53.082;8.816;2022-09-09T06:11:20;4.83;;;4.33;;
64887;SDS011;51386;53.082;8.816;2022-09-09T06:13:49;6.93;;;4.10;;
64887;SDS011;51386;53.082;8.816;2022-09-09T06:16:20;5.97;;;4.27;;
64887;SDS011;51386;53.082;8.816;2022-09-09T06:18:50;7.33;;;4.60;;
64887;SDS011;51386;53.082;8.816;2022-09-09T06:21:21;4.43;;;3.77;;
64887;SDS011;51386;53.082;8.816;2022-09-09T06:23:51;4.53;;;4.10;;
64887;SDS011;51386;53.082;8.816;2022-09-09T06:26:26;4.43;;;4.00;;
64887;SDS011;51386;53.082;8.816;2022-09-09T06:28:55;7.57;;;4.13;;
64887;SDS011;51386;53.082;8.816;2022-09-09T06:31:24;4.50;;;4.10;;
64887;SDS011;51386;53.082;8.816;2022-09-09T06:33:57;5.87;;;3.77;;
64887;SDS011;51386;53.082;8.816;2022-09-09T06:36:27;6.67;;;4.43;;
64887;SDS011;51386;53.082;8.816;2022-09-09T06:38:57;7.03;;;4.03;;
64887;SDS011;51386;53.082;8.816;2022-09-09T06:41:27;4.57;;;4.27;;
64887;SDS011;51386;53.082;8.816;2022-09-09T06:43:56;5.23;;;3.90;;
64887;SDS011;51386;53.082;8.816;2022-09-09T06:46:25;4.93;;;3.60;;
64887;SDS011;51386;53.082;8.816;2022-09-09T06:48:54;4.70;;;3.77;;
64887;SDS011;51386;53.082;8.816;2022-09-09T06:51:24;6.17;;;4.27;;
64887;SDS011;51386;53.082;8.816;2022-09-09T06:53:55;4.43;;;3.80;;
64887;SDS011;51386;53.082;8.816;2022-09-09T06:56:25;8.03;;;4.57;;
64887;SDS011;51386;53.082;8.816;2022-09-09T06:58:55;6.17;;;4.30;;
64887;SDS011;51386;53.082;8.816;2022-09-09T07:01:30;4.93;;;3.83;;
64887;SDS011;51386;53.082;8.816;2022-09-09T07:04:01;3.80;;;3.40;;
64887;SDS011;51386;53.082;8.816;2022-09-09T07:06:32;3.83;;;3.53;;
64887;SDS011;51386;53.082;8.816;2022-09-09T07:09:02;5.13;;;3.80;;
64887;SDS011;51386;53.082;8.816;2022-09-09T07:11:32;5.27;;;4.00;;
64887;SDS011;51386;53.082;8.816;2022-09-09T07:14:04;4.40;;;3.70;;
64887;SDS011;51386;53.082;8.816;2022-09-09T07:16:31;4.13;;;3.33;;
64887;SDS011;51386;53.082;8.816;2022-09-09T07:19:00;3.73;;;3.20;;
64887;SDS011;51386;53.082;8.816;2022-09-09T07:21:29;5.33;;;3.20;;
64887;SDS011;51386;53.082;8.816;2022-09-09T07:24:00;3.40;;;3.10;;
64887;SDS011;51386;53.082;8.816;2022-09-09T07:26:28;5.77;;;3.53;;
64887;SDS011;51386;53.082;8.816;2022-09-09T07:28:57;5.50;;;2.53;;
64887;SDS011;51386;53.082;8.816;2022-09-09T07:31:25;5.70;;;2.93;;
64887;SDS011;51386;53.082;8.816;2022-09-09T07:33:57;5.30;;;3.10;;
64887;SDS011;51386;53.082;8.816;2022-09-09T07:36:26;5.50;;;2.83;;
64887;SDS011;51386;53.082;8.816;2022-09-09T07:39:01;3.97;;;3.00;;
64887;SDS011;51386;53.082;8.816;2022-09-09T07:41:31;4.13;;;2.73;;
64887;SDS011;51386;53.082;8.816;2022-09-09T07:44:05;3.17;;;2.87;;
64887;SDS011;51386;53.082;8.816;2022-09-09T07:46:35;4.13;;;2.50;;
64887;SDS011;51386;53.082;8.816;2022-09-09T07:49:03;3.03;;;2.07;;
64887;SDS011;51386;53.082;8.816;2022-09-09T07:51:31;2.70;;;2.30;;
64887;SDS011;51386;53.082;8.816;2022-09-09T07:54:02;3.47;;;3.17;;
64887;SDS011;51386;53.082;8.816;2022-09-09T07:56:32;4.77;;;2.80;;
64887;SDS011;51386;53.082;8.816;2022-09-09T07:59:00;4.23;;;2.23;;
64887;SDS011;51386;53.082;8.816;2022-09-09T08:01:28;2.30;;;2.10;;
64887;SDS011;51386;53.082;8.816;2022-09-09T08:03:59;4.83;;;2.50;;
64887;SDS011;51386;53.082;8.816;2022-09-09T08:06:31;4.00;;;2.40;;
64887;SDS011;51386;53.082;8.816;2022-09-09T08:09:02;4.30;;;2.67;;
64887;SDS011;51386;53.082;8.816;2022-09-09T08:11:31;4.00;;;2.97;;
64887;SDS011;51386;53.082;8.816;2022-09-09T08:14:04;2.63;;;2.17;;
64887;SDS011;51386;53.082;8.816;2022-09-09T08:16:34;4.20;;;2.37;;
64887;SDS011;51386;53.082;8.816;2022-09-09T08:19:05;5.17;;;2.97;;
64887;SDS011;51386;53.082;8.816;2022-09-09T08:21:34;3.13;;;2.30;;
64887;SDS011;51386;53.082;8.816;2022-09-09T08:24:05;2.63;;;2.20;;
64887;SDS011;51386;53.082;8.816;2022-09-09T08:26:35;3.50;;;2.40;;
64887;SDS011;51386;53.082;8.816;2022-09-09T08:29:05;5.60;;;2.60;;
64887;SDS011;51386;53.082;8.816;2022-09-09T08:31:35;3.77;;;2.17;;
64887;SDS011;51386;53.082;8.816;2022-09-09T08:34:05;3.93;;;1.90;;
64887;SDS011;51386;53.082;8.816;2022-09-09T08:36:34;4.23;;;2.30;;
64887;SDS011;51386;53.082;8.816;2022-09-09T08:39:05;4.73;;;2.17;;
64887;SDS011;51386;53.082;8.816;2022-09-09T08:41:51;3.67;;;2.43;;
64887;SDS011;51386;53.082;8.816;2022-09-09T08:44:50;3.70;;;2.37;;
64887;SDS011;51386;53.082;8.816;2022-09-09T08:47:51;3.00;;;2.23;;
64887;SDS011;51386;53.082;8.816;2022-09-09T08:50:32;4.13;;;2.57;;
64887;SDS011;51386;53.082;8.816;2022-09-09T08:53:05;3.53;;;2.50;;
64887;SDS011;51386;53.082;8.816;2022-09-09T08:55:44;3.63;;;2.23;;
64887;SDS011;51386;53.082;8.816;2022-09-09T08:58:16;2.23;;;2.00;;
64887;SDS011;51386;53.082;8.816;2022-09-09T09:01:01;5.13;;;2.40;;
64887;SDS011;51386;53.082;8.816;2022-09-09T09:03:48;4.77;;;2.53;;
64887;SDS011;51386;53.082;8.816;2022-09-09T09:06:31;3.00;;;2.03;;
64887;SDS011;51386;53.082;8.816;2022-09-09T09:09:11;4.97;;;2.30;;
64887;SDS011;51386;53.082;8.816;2022-09-09T09:11:52;3.27;;;1.87;;
64887;SDS011;51386;53.082;8.816;2022-09-09T09:14:27;3.30;;;1.90;;
64887;SDS011;51386;53.082;8.816;2022-09-09T09:16:58;2.40;;;1.87;;
64887;SDS011;51386;53.082;8.816;2022-09-09T09:19:48;4.30;;;1.67;;
64887;SDS011;51386;53.082;8.816;2022-09-09T09:22:17;2.40;;;2.17;;
64887;SDS011;51386;53.082;8.816;2022-09-09T09:24:50;3.27;;;1.63;;
64887;SDS011;51386;53.082;8.816;2022-09-09T09:27:25;2.37;;;1.80;;
64887;SDS011;51386;53.082;8.816;2022-09-09T09:29:59;3.40;;;1.97;;
64887;SDS011;51386;53.082;8.816;2022-09-09T09:32:59;4.17;;;1.90;;
64887;SDS011;51386;53.082;8.816;2022-09-09T09:35:35;3.50;;;2.10;;
64887;SDS011;51386;53.082;8.816;2022-09-09T09:38:11;3.07;;;1.90;;
64887;SDS011;51386;53.082;8.816;2022-09-09T09:41:05;4.87;;;1.53;;
64887;SDS011;51386;53.082;8.816;2022-09-09T09:43:34;1.83;;;1.30;;
64887;SDS011;51386;53.082;8.816;2022-09-09T09:46:04;2.30;;;1.50;;
64887;SDS011;51386;53.082;8.816;2022-09-09T09:48:44;1.90;;;1.73;;
64887;SDS011;51386;53.082;8.816;2022-09-09T09:51:22;3.27;;;1.63;;
64887;SDS011;51386;53.082;8.816;2022-09-09T09:53:51;2.03;;;1.50;;
64887;SDS011;51386;53.082;8.816;2022-09-09T09:56:26;3.43;;;1.67;;
64887;SDS011;51386;53.082;8.816;2022-09-09T09:58:58;3.20;;;1.70;;
64887;SDS011;51386;53.082;8.816;2022-09-09T10:01:34;2.03;;;1.50;;
64887;SDS011;51386;53.082;8.816;2022-09-09T10:04:12;3.50;;;1.77;;
64887;SDS011;51386;53.082;8.816;2022-09-09T10:06:45;3.60;;;1.90;;
64887;SDS011;51386;53.082;8.816;2022-09-09T10:09:22;3.33;;;1.67;;
64887;SDS011;51386;53.082;8.816;2022-09-09T10:11:55;2.57;;;2.23;;
64887;SDS011;51386;53.082;8.816;2022-09-09T10:14:35;2.67;;;1.50;;
64887;SDS011;51386;53.082;8.816;2022-09-09T10:17:17;3.87;;;1.67;;
64887;SDS011;51386;53.082;8.816;2022-09-09T10:19:58;2.30;;;1.70;;
64887;SDS011;51386;53.082;8.816;2022-09-09T10:22:47;2.00;;;1.90;;
64887;SDS011;51386;53.082;8.816;2022-09-09T10:25:31;4.10;;;2.33;;
64887;SDS011;51386;53.082;8.816;2022-09-09T10:28:22;4.17;;;2.10;;
64887;SDS011;51386;53.082;8.816;2022-09-09T10:31:22;3.80;;;1.60;;
64887;SDS011;51386;53.082;8.816;2022-09-09T10:34:02;4.87;;;2.10;;
64887;SDS011;51386;53.082;8.816;2022-09-09T10:36:47;4.97;;;2.03;;
64887;SDS011;51386;53.082;8.816;2022-09-09T10:39:19;6.73;;;2.23;;
64887;SDS011;51386;53.082;8.816;2022-09-09T10:42:09;4.67;;;2.13;;
64887;SDS011;51386;53.082;8.816;2022-09-09T10:44:44;2.43;;;2.23;;
64887;SDS011;51386;53.082;8.816;2022-09-09T10:47:32;5.47;;;2.23;;
64887;SDS011;51386;53.082;8.816;2022-09-09T10:50:37;3.07;;;2.10;;
64887;SDS011;51386;53.082;8.816;2022-09-09T10:53:36;7.30;;;2.70;;
64887;SDS011;51386;53.082;8.816;2022-09-09T10:56:16;5.17;;;2.40;;
64887;SDS011;51386;53.082;8.816;2022-09-09T10:58:48;5.93;;;2.23;;
64887;SDS011;51386;53.082;8.816;2022-09-09T11:01:20;3.10;;;1.80;;
64887;SDS011;51386;53.082;8.816;2022-09-09T11:03:55;3.80;;;1.53;;
64887;SDS011;51386;53.082;8.816;2022-09-09T11:06:35;3.00;;;2.07;;
64887;SDS011;51386;53.082;8.816;2022-09-09T11:09:13;3.00;;;2.17;;
64887;SDS011;51386;53.082;8.816;2022-09-09T11:11:45;3.27;;;2.13;;
64887;SDS011;51386;53.082;8.816;2022-09-09T11:14:21;4.40;;;2.33;;
64887;SDS011;51386;53.082;8.816;2022-09-09T11:17:03;3.23;;;1.97;;
64887;SDS011;51386;53.082;8.816;2022-09-09T11:19:40;3.00;;;2.10;;
64887;SDS011;51386;53.082;8.816;2022-09-09T11:22:14;5.03;;;2.10;;
64887;SDS011;51386;53.082;8.816;2022-09-09T11:24:50;2.87;;;1.80;;
64887;SDS011;51386;53.082;8.816;2022-09-09T11:27:24;3.70;;;2.50;;
64887;SDS011;51386;53.082;8.816;2022-09-09T11:30:03;7.77;;;2.80;;
64887;SDS011;51386;53.082;8.816;2022-09-09T11:33:31;3.03;;;1.93;;
64887;SDS011;51386;53.082;8.816;2022-09-09T11:36:21;5.50;;;1.90;;
64887;SDS011;51386;53.082;8.816;2022-09-09T11:39:28;4.77;;;2.40;;
64887;SDS011;51386;53.082;8.816;2022-09-09T11:42:17;7.83;;;2.50;;
64887;SDS011;51386;53.082;8.816;2022-09-09T11:44:46;3.03;;;2.00;;
64887;SDS011;51386;53.082;8.816;2022-09-09T11:47:16;5.23;;;2.27;;
64887;SDS011;51386;53.082;8.816;2022-09-09T11:49:52;3.87;;;2.40;;
64887;SDS011;51386;53.082;8.816;2022-09-09T11:52:25;3.37;;;2.03;;
64887;SDS011;51386;53.082;8.816;2022-09-09T11:55:08;4.80;;;2.87;;
64887;SDS011;51386;53.082;8.816;2022-09-09T11:57:38;5.37;;;2.40;;
64887;SDS011;51386;53.082;8.816;2022-09-09T12:00:06;5.60;;;2.20;;
64887;SDS011;51386;53.082;8.816;2022-09-09T12:03:00;6.30;;;2.67;;
64887;SDS011;51386;53.082;8.816;2022-09-09T12:05:35;5.57;;;2.77;;
64887;SDS011;51386;53.082;8.816;2022-09-09T12:08:09;4.90;;;2.57;;
64887;SDS011;51386;53.082;8.816;2022-09-09T12:10:52;2.93;;;2.53;;
64887;SDS011;51386;53.082;8.816;2022-09-09T12:13:22;3.43;;;2.50;;
64887;SDS011;51386;53.082;8.816;2022-09-09T12:15:53;6.23;;;2.80;;
64887;SDS011;51386;53.082;8.816;2022-09-09T12:18:22;4.77;;;2.90;;
64887;SDS011;51386;53.082;8.816;2022-09-09T12:20:54;6.50;;;3.70;;
64887;SDS011;51386;53.082;8.816;2022-09-09T12:23:37;6.87;;;3.37;;
64887;SDS011;51386;53.082;8.816;2022-09-09T12:26:16;8.30;;;3.00;;
64887;SDS011;51386;53.082;8.816;2022-09-09T12:28:59;5.47;;;3.43;;
64887;SDS011;51386;53.082;8.816;2022-09-09T12:31:41;5.83;;;3.40;;
64887;SDS011;51386;53.082;8.816;2022-09-09T12:34:23;4.40;;;2.63;;
64887;SDS011;51386;53.082;8.816;2022-09-09T12:37:04;5.47;;;2.90;;
64887;SDS011;51386;53.082;8.816;2022-09-09T12:39:49;4.77;;;2.30;;
64887;SDS011;51386;53.082;8.816;2022-09-09T12:42:22;3.50;;;2.80;;
64887;SDS011;51386;53.082;8.816;2022-09-09T12:44:54;6.27;;;3.60;;
64887;SDS011;51386;53.082;8.816;2022-09-09T12:47:25;4.27;;;2.90;;
64887;SDS011;51386;53.082;8.816;2022-09-09T12:50:04;3.00;;;2.37;;
64887;SDS011;51386;53.082;8.816;2022-09-09T12:52:43;2.50;;;2.10;;
64887;SDS011;51386;53.082;8.816;2022-09-09T12:55:17;5.80;;;2.60;;
64887;SDS011;51386;53.082;8.816;2022-09-09T12:57:48;6.47;;;2.93;;
64887;SDS011;51386;53.082;8.816;2022-09-09T13:00:18;6.97;;;3.00;;
64887;SDS011;51386;53.082;8.816;2022-09-09T13:02:50;6.77;;;3.67;;
64887;SDS011;51386;53.082;8.816;2022-09-09T13:05:21;7.53;;;3.27;;
64887;SDS011;51386;53.082;8.816;2022-09-09T13:07:51;4.63;;;3.50;;
64887;SDS011;51386;53.082;8.816;2022-09-09T13:10:30;4.10;;;3.20;;
64887;SDS011;51386;53.082;8.816;2022-09-09T13:13:20;5.83;;;3.27;;
64887;SDS011;51386;53.082;8.816;2022-09-09T13:15:50;4.67;;;2.90;;
64887;SDS011;51386;53.082;8.816;2022-09-09T13:18:22;5.03;;;2.97;;
64887;SDS011;51386;53.082;8.816;2022-09-09T13:20:53;8.17;;;4.60;;
64887;SDS011;51386;53.082;8.816;2022-09-09T13:23:25;5.30;;;2.80;;
64887;SDS011;51386;53.082;8.816;2022-09-09T13:25:58;3.93;;;2.77;;
64887;SDS011;51386;53.082;8.816;2022-09-09T13:28:28;4.23;;;2.27;;
64887;SDS011;51386;53.082;8.816;2022-09-09T13:31:00;3.87;;;2.17;;
64887;SDS011;51386;53.082;8.816;2022-09-09T13:33:31;5.67;;;3.13;;
64887;SDS011;51386;53.082;8.816;2022-09-09T13:36:01;3.60;;;2.60;;
64887;SDS011;51386;53.082;8.816;2022-09-09T13:38:32;4.07;;;2.40;;
64887;SDS011;51386;53.082;8.816;2022-09-09T13:41:06;5.80;;;2.50;;
64887;SDS011;51386;53.082;8.816;2022-09-09T13:43:37;3.77;;;2.97;;
64887;SDS011;51386;53.082;8.816;2022-09-09T13:46:26;3.07;;;1.90;;
64887;SDS011;51386;53.082;8.816;2022-09-09T13:49:00;3.93;;;2.30;;
64887;SDS011;51386;53.082;8.816;2022-09-09T13:51:45;4.23;;;2.30;;
64887;SDS011;51386;53.082;8.816;2022-09-09T13:54:17;4.63;;;2.17;;
64887;SDS011;51386;53.082;8.816;2022-09-09T13:56:48;3.77;;;2.03;;
64887;SDS011;51386;53.082;8.816;2022-09-09T13:59:17;6.37;;;2.73;;
64887;SDS011;51386;53.082;8.816;2022-09-09T14:01:46;6.50;;;2.30;;
64887;SDS011;51386;53.082;8.816;2022-09-09T14:04:15;5.30;;;2.73;;
64887;SDS011;51386;53.082;8.816;2022-09-09T14:06:43;7.43;;;2.53;;
64887;SDS011;51386;53.082;8.816;2022-09-09T14:09:11;4.20;;;2.00;;
64887;SDS011;51386;53.082;8.816;2022-09-09T14:11:42;3.87;;;2.50;;
64887;SDS011;51386;53.082;8.816;2022-09-09T14:14:11;4.20;;;2.10;;
64887;SDS011;51386;53.082;8.816;2022-09-09T14:16:39;4.40;;;2.27;;
64887;SDS011;51386;53.082;8.816;2022-09-09T14:19:07;4.53;;;4.13;;
64887;SDS011;51386;53.082;8.816;2022-09-09T14:21:34;5.13;;;2.50;;
64887;SDS011;51386;53.082;8.816;2022-09-09T14:24:02;5.30;;;2.33;;
64887;SDS011;51386;53.082;8.816;2022-09-09T14:26:29;3.53;;;2.30;;
64887;SDS011;51386;53.082;8.816;2022-09-09T14:28:57;6.27;;;2.57;;
64887;SDS011;51386;53.082;8.816;2022-09-09T14:31:26;3.20;;;2.60;;
64887;SDS011;51386;53.082;8.816;2022-09-09T14:33:54;5.17;;;2.97;;
64887;SDS011;51386;53.082;8.816;2022-09-09T14:36:21;10.03;;;4.33;;
64887;SDS011;51386;53.082;8.816;2022-09-09T14:38:49;6.57;;;2.87;;
64887;SDS011;51386;53.082;8.816;2022-09-09T14:41:17;5.83;;;2.67;;
64887;SDS011;51386;53.082;8.816;2022-09-09T14:43:49;4.33;;;2.37;;
64887;SDS011;51386;53.082;8.816;2022-09-09T14:46:17;4.10;;;2.80;;
64887;SDS011;51386;53.082;8.816;2022-09-09T14:48:47;3.53;;;2.40;;
64887;SDS011;51386;53.082;8.816;2022-09-09T14:51:15;3.57;;;2.50;;
64887;SDS011;51386;53.082;8.816;2022-09-09T14:53:46;3.83;;;2.70;;
64887;SDS011;51386;53.082;8.816;2022-09-09T14:56:14;3.60;;;2.57;;
64887;SDS011;51386;53.082;8.816;2022-09-09T14:58:43;3.17;;;2.30;;
64887;SDS011;51386;53.082;8.816;2022-09-09T15:01:12;3.57;;;2.07;;
64887;SDS011;51386;53.082;8.816;2022-09-09T15:03:43;3.33;;;2.30;;
64887;SDS011;51386;53.082;8.816;2022-09-09T15:06:19;4.90;;;3.00;;
64887;SDS011;51386;53.082;8.816;2022-09-09T15:08:47;4.40;;;2.77;;
64887;SDS011;51386;53.082;8.816;2022-09-09T15:11:17;4.43;;;3.00;;
64887;SDS011;51386;53.082;8.816;2022-09-09T15:13:46;4.10;;;2.77;;
64887;SDS011;51386;53.082;8.816;2022-09-09T15:16:18;6.27;;;2.70;;
64887;SDS011;51386;53.082;8.816;2022-09-09T15:18:51;4.03;;;2.53;;
64887;SDS011;51386;53.082;8.816;2022-09-09T15:21:21;4.80;;;2.30;;